KPZQ METAR Reports


Rogers City, Presque Isle County Airport, MI, United States (KPZQ) 45-24-25N 083-48-46W
Aug 04, 2020 - 12:35 PM EDT / 2020.08.04 1635 UTC
Wind: from the N (360 degrees) at 9 MPH (8 KT):0
Visibility: 10 mile(s):0
Sky conditions: overcast
Temperature: 62.4 F (16.9 C)
Dew Point: 52.5 F (11.4 C)
Relative Humidity: 70%
Pressure (altimeter): 30.04 in. Hg (1017 hPa)
ob: KPZQ 041635Z AUTO 36008KT 10SM SCT021 BKN026 OVC065 17/11 A3004 RMK AO2 T01690114
cycle: 16

 

Rogers City METAR Meteogram

Weather Chart

Nearby METAR Reports

KPZQ - Rogers City, Michigan, USA
Distance from station: SSW 1mi, 2km
Updated: Tue, 04-Aug-2020 12:35pm EDT
Overcast
Overcast
 Wind from N
Wind: N 9 mph , 15 km/h
Temperature: 63°F , 17°C
Dew Point: 52°F , 11°C
Humidity: 68%
Barometer: 30.04 inHg , 1017.3 hPa
Clouds: Overcast
Visibility: 10 miles , 16 km
Cloud details: Partly cloudy 2100 ft
Mostly cloudy 2600 ft
Overcast 6500 ft
2020/08/04 16:35 KPZQ 041635Z AUTO 36008KT 10SM SCT021 BKN026 OVC065 17/11 A3004 RMK AO2 T01690114
KAPN - Alpena, Michigan, USA
Distance from station: SSE 27mi, 43km
Updated: Tue, 04-Aug-2020 11:54am EDT
NOT Current
Overcast
Overcast
 Wind from NNW
Wind: NNW 10 mph , 17 km/h
Temperature: 63°F , 17°C
Dew Point: 55°F , 13°C
Humidity: 77%
Barometer: 30.02 inHg , 1016.6 hPa
Clouds: Overcast
Visibility: 10 miles , 16 km
Cloud details: Mostly cloudy 2000 ft
Overcast 2800 ft
2020/08/04 15:54 KAPN 041554Z 34009KT 10SM BKN020 OVC028 17/13 A3002 RMK AO2 SLP164 T01670133
 
KSLH - Cheboygan, Michigan, USA
Distance from station: WNW 38mi, 61km
Updated: Tue, 04-Aug-2020 12:35pm EDT
Partly cloudy
Partly cloudy
 Wind from N
Wind: N 13 mph , 20 km/h
Temperature: 66°F , 19°C
Dew Point: 50°F , 10°C
Humidity: 56%
Barometer: 30.03 inHg , 1016.9 hPa
Clouds: Partly cloudy
Visibility: 10 miles , 16 km
Cloud details: Partly cloudy 8500 ft
2020/08/04 16:35 KSLH 041635Z AUTO 36011KT 10SM SCT085 19/10 A3003 RMK AO2 T01880098
KDRM - Drummond Is, Michigan, USA
Distance from station: N 40mi, 65km
Updated: Tue, 04-Aug-2020 12:35pm EDT
Overcast
Overcast
 Wind from N
Wind: N 5 mph , 7 km/h
Temperature: 64°F , 18°C
Dew Point: 48°F , 9°C
Humidity: 56%
Barometer: 30.02 inHg , 1016.6 hPa
Clouds: Overcast
Visibility: 10 miles , 16 km
Cloud details: Overcast 8500 ft
2020/08/04 16:35 KDRM 041635Z AUTO 01004KT 10SM OVC085 18/09 A3002 RMK AO2 T01840093
 
KPLN - Pellston, Michigan, USA
Distance from station: WNW 49mi, 79km
Updated: Tue, 04-Aug-2020 11:54am EDT
NOT Current
Partly cloudy
Partly cloudy
 Wind from NNE
Wind: NNE 14 mph , 22 km/h
Temperature: 66°F , 19°C
Dew Point: 48°F , 9°C
Humidity: 52%
Barometer: 30.05 inHg , 1017.6 hPa
Clouds: Partly cloudy
Visibility: 10 miles , 16 km
Cloud details: Partly cloudy 3800 ft
2020/08/04 15:54 KPLN 041554Z AUTO 02012KT 10SM SCT038 19/09 A3005 RMK AO2 SLP175 T01940094
KMCD - Mackinac Island, Michigan, USA
Distance from station: NW 50mi, 80km
Updated: Tue, 04-Aug-2020 12:35pm EDT

 
2020/08/04 16:35 KMCD 041635Z AUTO RMK TEMPORAIRILY INOPERATIVE